Time;durP1;ratioP1;P1;durP2;ratioP2;P2;SDS_P1;SDS_P2;PMS_P1;PMS_P2;Temp;Humidity;BMP_temperature;BMP_pressure;BME280_temperature;BME280_humidity;BME280_pressure;Samples;Min_cycle;Max_cycle;Signal;HPM_P1;HPM_P2
2022/03/03 00:02:15;;;;;;;22.80;11.95;;;3.30;45.20;;;;;;5116947;28;20026;-74
2022/03/03 00:04:41;;;;;;;21.13;12.27;;;3.30;45.20;;;;;;5115893;28;20066;-74
2022/03/03 00:07:07;;;;;;;20.55;12.32;;;3.20;45.30;;;;;;5117122;28;20364;-75
2022/03/03 00:09:32;;;;;;;23.73;13.32;;;3.10;45.20;;;;;;5117390;28;20359;-74
2022/03/03 00:11:58;;;;;;;26.25;11.95;;;3.10;45.50;;;;;;5116795;28;20023;-74
2022/03/03 00:14:23;;;;;;;22.33;12.80;;;3.00;45.60;;;;;;5116707;28;20038;-75
2022/03/03 00:16:49;;;;;;;23.05;12.95;;;2.90;45.80;;;;;;5116085;28;20028;-74
2022/03/03 00:19:15;;;;;;;20.02;12.57;;;2.80;46.20;;;;;;5116575;28;20070;-74
2022/03/03 00:21:40;;;;;;;21.15;13.00;;;2.80;46.70;;;;;;5115569;27;20496;-74
2022/03/03 00:24:07;;;;;;;27.58;14.25;;;2.70;46.80;;;;;;5116470;28;20019;-75
2022/03/03 00:26:32;;;;;;;23.08;12.55;;;2.60;47.00;;;;;;5115728;28;20027;-74
2022/03/03 00:28:58;;;;;;;22.58;13.02;;;2.60;47.20;;;;;;5116163;28;20024;-74
2022/03/03 00:31:24;;;;;;;21.55;13.52;;;2.50;47.30;;;;;;5116290;28;20454;-75
2022/03/03 00:33:50;;;;;;;22.90;13.30;;;2.50;47.40;;;;;;5115653;28;20622;-75
2022/03/03 00:36:15;;;;;;;25.85;13.80;;;2.40;47.70;;;;;;5116256;28;20027;-75
2022/03/03 00:38:41;;;;;;;22.35;13.13;;;2.40;48.00;;;;;;5115642;28;20024;-74
2022/03/03 00:41:07;;;;;;;24.85;13.32;;;2.30;48.10;;;;;;5115868;28;20028;-76
2022/03/03 00:43:32;;;;;;;23.52;13.05;;;2.30;48.20;;;;;;5115633;28;20019;-75
2022/03/03 00:45:58;;;;;;;24.67;14.05;;;2.20;48.20;;;;;;5116108;28;20409;-75
2022/03/03 00:48:24;;;;;;;23.17;12.65;;;2.20;48.40;;;;;;5116068;28;20213;-76
2022/03/03 00:50:49;;;;;;;23.05;13.82;;;2.20;48.50;;;;;;5115376;28;20355;-75
2022/03/03 00:53:15;;;;;;;20.90;12.70;;;2.20;48.60;;;;;;5116009;28;20024;-75
2022/03/03 00:55:41;;;;;;;24.15;13.75;;;2.20;48.70;;;;;;5115206;28;20047;-75
2022/03/03 00:58:06;;;;;;;23.60;13.85;;;2.20;48.70;;;;;;5115515;28;20103;-75
2022/03/03 01:00:32;;;;;;;20.48;12.90;;;2.20;48.90;;;;;;5115833;28;20110;-74
2022/03/03 01:02:58;;;;;;;22.23;13.25;;;2.10;49.00;;;;;;5115719;28;20367;-75
2022/03/03 01:05:24;;;;;;;22.58;13.25;;;2.10;49.10;;;;;;5115231;28;20027;-75
2022/03/03 01:07:49;;;;;;;26.15;13.80;;;2.10;49.20;;;;;;5114746;28;20035;-75
2022/03/03 01:10:15;;;;;;;26.75;15.18;;;2.10;49.20;;;;;;5114917;28;20440;-75
2022/03/03 01:12:41;;;;;;;25.00;13.40;;;2.10;49.30;;;;;;5113609;28;20038;-75
2022/03/03 01:15:09;;;;;;;24.52;13.43;;;2.10;49.40;;;;;;5115661;28;20489;-75
2022/03/03 01:17:34;;;;;;;22.85;13.52;;;2.00;49.30;;;;;;5115737;28;20083;-75
2022/03/03 01:20:01;;;;;;;23.65;13.27;;;2.00;49.40;;;;;;5117050;28;20476;-76
2022/03/03 01:22:26;;;;;;;24.35;14.55;;;1.90;49.50;;;;;;5117196;28;20098;-75
2022/03/03 01:24:52;;;;;;;23.13;13.80;;;2.00;49.70;;;;;;5114518;28;20161;-75
2022/03/03 01:27:18;;;;;;;26.23;15.23;;;1.90;49.80;;;;;;5115601;28;20028;-75
2022/03/03 01:29:44;;;;;;;24.85;14.20;;;1.90;50.00;;;;;;5114694;28;20020;-74
2022/03/03 01:32:09;;;;;;;26.05;14.38;;;1.90;50.10;;;;;;5115270;28;20023;-75
2022/03/03 01:34:36;;;;;;;24.10;14.27;;;1.90;50.10;;;;;;5114509;28;20027;-74
2022/03/03 01:37:02;;;;;;;25.00;13.85;;;1.90;50.20;;;;;;5114997;28;20035;-75
2022/03/03 01:39:28;;;;;;;23.33;14.27;;;1.90;50.40;;;;;;5114779;28;20015;-75
2022/03/03 01:41:53;;;;;;;25.23;14.70;;;1.80;50.40;;;;;;5114327;28;20501;-75
2022/03/03 01:44:19;;;;;;;26.67;14.57;;;1.80;50.40;;;;;;5114656;28;20069;-75
2022/03/03 01:46:56;;;;;;;26.35;13.95;;;1.80;50.60;;;;;;5114292;28;20024;-75
2022/03/03 01:49:22;;;;;;;26.60;14.63;;;1.70;50.70;;;;;;5115144;28;20039;-76
2022/03/03 01:51:48;;;;;;;28.92;14.40;;;1.70;50.70;;;;;;5114373;28;20055;-75
2022/03/03 01:54:14;;;;;;;22.77;13.63;;;1.60;51.00;;;;;;5114862;28;20058;-75
2022/03/03 01:56:41;;;;;;;23.33;14.45;;;1.60;51.10;;;;;;5114251;28;20103;-75
2022/03/03 01:59:07;;;;;;;23.70;13.82;;;1.60;51.20;;;;;;5114804;28;20027;-75
2022/03/03 02:01:32;;;;;;;22.85;14.13;;;1.60;51.30;;;;;;5114564;28;20073;-75
2022/03/03 02:03:58;;;;;;;27.02;14.57;;;1.50;51.30;;;;;;5112831;28;20088;-74
2022/03/03 02:06:25;;;;;;;26.17;14.52;;;1.50;51.60;;;;;;5114645;28;20020;-76
2022/03/03 02:08:53;;;;;;;26.98;13.88;;;1.50;51.80;;;;;;5113958;28;20375;-75
2022/03/03 02:11:20;;;;;;;26.80;14.20;;;1.50;52.30;;;;;;5114466;27;20038;-76
2022/03/03 02:13:46;;;;;;;23.60;14.23;;;1.40;51.90;;;;;;5113823;28;20024;-75
2022/03/03 02:16:12;;;;;;;23.60;14.48;;;1.40;52.10;;;;;;5114580;28;20031;-76
2022/03/03 02:18:42;;;;;;;25.45;14.48;;;1.40;52.10;;;;;;5114031;28;20022;-75
2022/03/03 02:21:12;;;;;;;24.27;14.48;;;1.40;52.10;;;;;;5113290;28;20456;-75
2022/03/03 02:23:38;;;;;;;24.33;13.50;;;1.40;52.40;;;;;;5113264;28;20061;-73
2022/03/03 02:26:05;;;;;;;26.08;16.00;;;1.40;52.30;;;;;;5113553;28;20452;-74
2022/03/03 02:28:31;;;;;;;25.35;15.02;;;1.30;52.40;;;;;;5113927;28;20045;-75
2022/03/03 02:30:56;;;;;;;22.60;14.57;;;1.40;52.50;;;;;;5113321;28;20034;-75
2022/03/03 02:33:22;;;;;;;22.63;13.90;;;1.40;52.50;;;;;;5113463;28;20020;-76
2022/03/03 02:35:48;;;;;;;26.92;15.52;;;1.40;52.60;;;;;;5113236;28;20102;-76
2022/03/03 02:38:13;;;;;;;25.63;15.63;;;1.40;52.60;;;;;;5113747;28;20015;-76
2022/03/03 02:40:39;;;;;;;28.73;15.50;;;1.30;52.50;;;;;;5113706;28;20506;-76
2022/03/03 02:43:05;;;;;;;26.95;15.82;;;1.30;52.50;;;;;;5112433;28;20023;-76
2022/03/03 02:45:30;;;;;;;26.05;15.48;;;1.30;52.60;;;;;;5113702;28;20050;-76
2022/03/03 02:47:56;;;;;;;25.75;15.15;;;1.30;52.70;;;;;;5113101;28;20467;-76
2022/03/03 02:50:25;;;;;;;26.75;15.15;;;1.30;52.90;;;;;;5112191;28;20038;-74
2022/03/03 02:52:51;;;;;;;28.55;16.20;;;1.30;52.90;;;;;;5112990;28;20023;-75
2022/03/03 02:55:18;;;;;;;23.95;14.63;;;1.30;52.90;;;;;;5113544;28;20048;-76
2022/03/03 02:57:56;;;;;;;28.58;15.90;;;1.30;53.00;;;;;;5113083;28;20505;-75
2022/03/03 03:00:23;;;;;;;26.27;14.88;;;1.30;52.90;;;;;;5113182;28;20476;-76
2022/03/03 03:02:48;;;;;;;26.10;15.02;;;1.30;53.00;;;;;;5112891;28;20032;-75
2022/03/03 03:05:14;;;;;;;28.65;16.25;;;1.30;53.00;;;;;;5112044;28;20028;-75
2022/03/03 03:07:40;;;;;;;28.13;15.57;;;1.30;52.90;;;;;;5112984;28;20035;-76
2022/03/03 03:10:06;;;;;;;27.70;15.75;;;1.20;53.00;;;;;;5112702;28;20069;-76
2022/03/03 03:12:32;;;;;;;25.10;15.23;;;1.20;53.10;;;;;;5113428;28;20106;-76
2022/03/03 03:14:58;;;;;;;31.73;15.35;;;1.20;53.20;;;;;;5111180;28;20035;-76
2022/03/03 03:17:24;;;;;;;27.23;15.25;;;1.20;53.30;;;;;;5112904;28;20022;-75
2022/03/03 03:19:49;;;;;;;28.33;15.73;;;1.20;53.50;;;;;;5112243;28;20099;-75
2022/03/03 03:22:15;;;;;;;25.75;15.50;;;1.10;53.30;;;;;;5113133;28;20023;-76
2022/03/03 03:24:40;;;;;;;27.17;15.75;;;1.10;53.40;;;;;;5112858;28;20024;-76
2022/03/03 03:27:06;;;;;;;29.20;16.73;;;1.20;53.60;;;;;;5112576;28;20029;-75
2022/03/03 03:29:32;;;;;;;25.10;15.23;;;1.10;53.50;;;;;;5113013;28;20016;-73
2022/03/03 03:31:58;;;;;;;30.73;16.23;;;1.10;53.50;;;;;;5112045;28;20030;-75
2022/03/03 03:34:23;;;;;;;24.35;15.55;;;1.00;53.50;;;;;;5112495;28;20094;-75
2022/03/03 03:36:49;;;;;;;28.42;15.93;;;1.10;53.60;;;;;;5112595;28;20015;-75
2022/03/03 03:39:15;;;;;;;25.17;15.95;;;1.00;53.60;;;;;;5112777;28;20076;-75
2022/03/03 03:41:43;;;;;;;25.52;15.98;;;1.00;53.70;;;;;;5112885;28;20020;-75
2022/03/03 03:44:09;;;;;;;27.88;15.75;;;1.00;53.60;;;;;;5112367;28;20022;-75
2022/03/03 03:46:35;;;;;;;27.40;15.50;;;1.00;53.60;;;;;;5112470;28;20395;-75
2022/03/03 03:49:01;;;;;;;26.60;15.25;;;1.00;53.60;;;;;;5112415;28;20098;-75
2022/03/03 03:51:27;;;;;;;26.60;15.35;;;1.00;53.70;;;;;;5112474;28;20585;-76
2022/03/03 03:53:52;;;;;;;27.92;15.68;;;1.00;54.30;;;;;;5112430;28;20161;-75
2022/03/03 03:56:18;;;;;;;25.95;15.10;;;1.00;53.90;;;;;;5113083;28;20126;-75
2022/03/03 03:58:43;;;;;;;30.83;16.30;;;0.90;53.80;;;;;;5112471;28;20087;-75
2022/03/03 04:01:09;;;;;;;28.95;15.48;;;1.00;54.00;;;;;;5112249;28;20019;-73
2022/03/03 04:03:35;;;;;;;26.17;15.65;;;1.00;54.00;;;;;;5112734;28;20016;-74
2022/03/03 04:06:00;;;;;;;32.25;16.55;;;1.00;54.00;;;;;;5111826;28;20028;-74
2022/03/03 04:08:26;;;;;;;26.60;16.75;;;1.00;54.00;;;;;;5112833;28;20055;-75
2022/03/03 04:10:52;;;;;;;30.33;16.80;;;1.00;54.10;;;;;;5112108;28;20023;-74
2022/03/03 04:13:17;;;;;;;23.05;14.93;;;1.00;54.20;;;;;;5112796;28;20028;-74
2022/03/03 04:15:43;;;;;;;23.63;14.77;;;1.00;54.30;;;;;;5113010;28;20049;-74
2022/03/03 04:18:10;;;;;;;32.63;16.52;;;1.10;54.40;;;;;;5111932;28;20026;-74
2022/03/03 04:20:36;;;;;;;30.17;16.35;;;1.10;54.20;;;;;;5112484;28;20028;-74
2022/03/03 04:23:02;;;;;;;31.08;17.10;;;1.10;54.10;;;;;;5112246;28;20024;-74
2022/03/03 04:25:28;;;;;;;26.23;16.08;;;1.10;54.10;;;;;;5112056;28;20031;-74
2022/03/03 04:27:54;;;;;;;29.15;16.38;;;1.10;53.90;;;;;;5111979;28;20444;-74
2022/03/03 04:30:20;;;;;;;31.17;17.75;;;1.10;54.00;;;;;;5112739;28;20111;-75
2022/03/03 04:32:45;;;;;;;28.15;16.55;;;1.10;53.80;;;;;;5112188;28;20444;-74
2022/03/03 04:35:11;;;;;;;24.52;15.65;;;1.10;53.80;;;;;;5111548;28;20035;-74
2022/03/03 04:37:38;;;;;;;27.83;16.15;;;1.10;53.90;;;;;;5112290;28;20034;-74
2022/03/03 04:40:06;;;;;;;24.20;15.75;;;1.10;54.00;;;;;;5112089;28;20028;-74
2022/03/03 04:42:32;;;;;;;32.80;16.15;;;1.10;54.00;;;;;;5112525;28;20019;-75
2022/03/03 04:44:57;;;;;;;33.65;16.33;;;1.10;54.10;;;;;;5113761;28;20106;-74
2022/03/03 04:47:23;;;;;;;27.27;16.50;;;1.10;54.10;;;;;;5116182;28;20123;-74
2022/03/03 04:49:49;;;;;;;31.35;17.65;;;1.10;54.00;;;;;;5115823;28;20055;-74
2022/03/03 04:52:14;;;;;;;29.20;15.65;;;1.00;54.20;;;;;;5115751;28;20529;-74
2022/03/03 04:54:40;;;;;;;37.38;17.17;;;1.00;54.30;;;;;;5115753;28;20533;-74
2022/03/03 04:57:06;;;;;;;29.38;16.23;;;1.10;54.30;;;;;;5115494;28;20023;-74
2022/03/03 04:59:31;;;;;;;30.85;16.55;;;1.10;54.30;;;;;;5115456;28;20457;-74
2022/03/03 05:01:57;;;;;;;30.30;15.82;;;1.10;54.20;;;;;;5115246;28;20019;-74
2022/03/03 05:04:23;;;;;;;29.15;15.77;;;1.10;54.20;;;;;;5115576;28;20027;-74
2022/03/03 05:06:49;;;;;;;29.98;16.33;;;1.10;54.20;;;;;;5115720;28;20509;-74
2022/03/03 05:09:15;;;;;;;25.95;15.85;;;1.20;54.20;;;;;;5115403;28;20126;-75
2022/03/03 05:11:41;;;;;;;29.42;15.80;;;1.20;54.10;;;;;;5115748;28;20372;-75
2022/03/03 05:14:07;;;;;;;26.23;15.98;;;1.20;54.30;;;;;;5114321;28;20118;-75
2022/03/03 05:16:34;;;;;;;28.02;15.75;;;1.20;54.20;;;;;;5115268;28;20107;-75
2022/03/03 05:19:00;;;;;;;25.23;15.43;;;1.20;54.30;;;;;;5114294;28;20027;-74
2022/03/03 05:21:25;;;;;;;28.42;15.93;;;1.20;54.30;;;;;;5114656;28;20020;-74
2022/03/03 05:23:51;;;;;;;29.15;17.05;;;1.20;54.40;;;;;;5115146;28;20095;-74
2022/03/03 05:26:18;;;;;;;32.05;16.88;;;1.20;54.20;;;;;;5115176;28;20063;-75
2022/03/03 05:28:44;;;;;;;30.83;15.82;;;1.20;54.30;;;;;;5114788;28;20028;-75
2022/03/03 05:31:10;;;;;;;25.70;16.25;;;1.20;54.40;;;;;;5114606;28;20042;-74
2022/03/03 05:33:35;;;;;;;27.33;16.02;;;1.20;54.50;;;;;;5115092;28;20456;-74
2022/03/03 05:36:07;;;;;;;29.73;17.60;;;1.20;54.70;;;;;;5114300;28;20493;-74
2022/03/03 05:38:35;;;;;;;29.83;15.85;;;1.20;54.70;;;;;;5115026;27;20069;-76
2022/03/03 05:41:02;;;;;;;33.65;16.00;;;1.30;55.10;;;;;;5114466;28;20020;-75
2022/03/03 05:43:28;;;;;;;28.48;17.15;;;1.30;54.90;;;;;;5115043;28;20032;-74
2022/03/03 05:45:54;;;;;;;26.15;16.23;;;1.30;55.00;;;;;;5116430;28;20083;-75
2022/03/03 05:48:24;;;;;;;28.52;16.98;;;1.30;54.80;;;;;;5116179;28;20034;-74
2022/03/03 05:50:50;;;;;;;32.42;16.85;;;1.20;54.90;;;;;;5098304;28;20387;-75
2022/03/03 05:53:16;;;;;;;26.70;16.83;;;1.30;54.90;;;;;;5115853;28;20033;-74
2022/03/03 05:55:44;;;;;;;32.47;16.58;;;1.30;55.00;;;;;;5113747;28;20086;-74
2022/03/03 05:58:15;;;;;;;30.70;16.13;;;1.30;55.00;;;;;;5114170;28;20061;-74
2022/03/03 06:00:43;;;;;;;37.03;17.42;;;1.30;54.70;;;;;;5116089;28;20028;-75
2022/03/03 06:03:13;;;;;;;28.90;15.93;;;1.30;55.20;;;;;;5115704;28;20023;-74
2022/03/03 06:05:41;;;;;;;30.30;17.10;;;1.40;55.20;;;;;;5114819;28;20088;-74
2022/03/03 06:08:17;;;;;;;28.65;16.27;;;1.40;55.00;;;;;;5114250;28;20115;-73
2022/03/03 06:10:50;;;;;;;43.28;17.67;;;1.50;54.70;;;;;;5114854;27;20028;-75
2022/03/03 06:13:25;;;;;;;34.10;18.02;;;1.50;54.60;;;;;;5114100;28;20015;-75
2022/03/03 06:15:52;;;;;;;39.08;17.25;;;1.50;54.70;;;;;;5114167;28;20015;-75
2022/03/03 06:18:26;;;;;;;37.08;18.30;;;1.50;54.90;;;;;;5112872;28;20375;-74
2022/03/03 06:20:52;;;;;;;34.65;16.85;;;1.60;55.20;;;;;;5111956;28;20100;-75
2022/03/03 06:23:19;;;;;;;38.88;17.48;;;1.60;55.60;;;;;;5112313;28;20057;-74
2022/03/03 06:25:44;;;;;;;57.05;19.27;;;1.60;56.10;;;;;;5113928;28;20113;-75
2022/03/03 06:28:11;;;;;;;39.13;18.60;;;1.60;56.60;;;;;;5112615;28;20077;-73
2022/03/03 06:30:42;;;;;;;41.53;17.95;;;1.60;57.10;;;;;;5113001;28;20024;-74
2022/03/03 06:33:08;;;;;;;34.72;18.40;;;1.70;57.50;;;;;;5113251;28;20027;-75
2022/03/03 06:35:35;;;;;;;32.53;18.35;;;1.80;57.60;;;;;;5113557;28;20039;-76
2022/03/03 06:38:06;;;;;;;48.85;18.08;;;1.80;57.50;;;;;;5113077;28;20063;-74
2022/03/03 06:40:32;;;;;;;33.95;18.45;;;1.80;57.50;;;;;;5113624;28;20023;-76
2022/03/03 06:43:00;;;;;;;37.28;18.55;;;1.80;57.60;;;;;;5100361;28;20056;-74
2022/03/03 06:45:30;;;;;;;34.58;18.60;;;1.90;57.50;;;;;;5092872;28;20032;-74
2022/03/03 06:47:57;;;;;;;31.45;18.10;;;1.90;57.70;;;;;;5093113;28;20445;-74
2022/03/03 06:50:23;;;;;;;36.67;17.95;;;1.90;57.80;;;;;;5092975;28;20073;-74
2022/03/03 06:52:50;;;;;;;36.00;18.88;;;2.00;58.00;;;;;;5092825;28;20024;-75
2022/03/03 06:55:25;;;;;;;40.35;17.92;;;2.00;58.30;;;;;;5091937;28;20048;-74
2022/03/03 06:57:54;;;;;;;35.78;19.02;;;2.00;58.20;;;;;;5093216;28;20024;-75
2022/03/03 07:00:22;;;;;;;35.25;19.92;;;2.10;58.20;;;;;;5091950;28;20388;-75
2022/03/03 07:02:48;;;;;;;31.55;19.40;;;2.10;58.20;;;;;;5093112;28;20020;-75
2022/03/03 07:05:17;;;;;;;37.15;18.67;;;2.10;57.90;;;;;;5092336;28;20032;-74
2022/03/03 07:07:45;;;;;;;37.63;19.67;;;2.20;58.00;;;;;;5092313;28;20112;-75
2022/03/03 07:10:12;;;;;;;35.55;19.73;;;2.20;58.10;;;;;;5092383;28;20020;-75
2022/03/03 07:12:38;;;;;;;34.08;17.80;;;2.20;58.00;;;;;;5092568;28;20461;-74
2022/03/03 07:15:04;;;;;;;32.17;17.83;;;2.30;57.80;;;;;;5091852;28;20067;-75
2022/03/03 07:17:45;;;;;;;34.55;17.60;;;2.40;57.10;;;;;;5092742;28;20132;-75
2022/03/03 07:20:16;;;;;;;28.02;17.80;;;2.40;56.20;;;;;;5090729;28;20114;-74
2022/03/03 07:22:58;;;;;;;38.53;18.52;;;2.40;55.70;;;;;;5092851;28;20110;-75
2022/03/03 07:25:32;;;;;;;36.53;17.73;;;2.50;55.40;;;;;;5091944;28;20050;-75
2022/03/03 07:28:01;;;;;;;35.92;18.75;;;2.50;55.60;;;;;;5110719;28;20027;-74
2022/03/03 07:30:27;;;;;;;35.03;18.98;;;2.50;55.40;;;;;;5112725;28;20024;-74
2022/03/03 07:33:05;;;;;;;36.15;18.55;;;2.50;55.90;;;;;;5112933;28;20073;-74
2022/03/03 07:35:33;;;;;;;39.95;19.33;;;2.60;56.30;;;;;;5112976;28;20081;-74
2022/03/03 07:38:14;;;;;;;33.85;18.92;;;2.70;56.60;;;;;;5112475;28;20055;-74
2022/03/03 07:40:42;;;;;;;29.58;17.35;;;2.90;56.90;;;;;;5112576;28;20426;-74
2022/03/03 07:43:11;;;;;;;32.65;18.08;;;3.20;54.80;;;;;;5111950;28;20035;-74
2022/03/03 07:45:38;;;;;;;33.63;18.08;;;3.50;54.50;;;;;;5112631;28;20035;-74
2022/03/03 07:48:04;;;;;;;31.00;17.70;;;3.80;53.70;;;;;;5112054;28;20032;-75
2022/03/03 07:50:30;;;;;;;32.03;17.70;;;4.20;52.90;;;;;;5112548;28;20027;-73
2022/03/03 07:52:56;;;;;;;31.95;17.08;;;4.50;51.80;;;;;;5112673;28;20023;-74
2022/03/03 07:55:23;;;;;;;33.63;17.70;;;4.70;50.70;;;;;;5111522;28;20400;-73
2022/03/03 07:58:02;;;;;;;30.70;17.23;;;4.90;49.80;;;;;;5112888;28;20026;-74
2022/03/03 08:00:31;;;;;;;28.55;16.13;;;5.10;49.30;;;;;;5112282;28;20499;-73
2022/03/03 08:03:08;;;;;;;31.35;17.13;;;5.20;48.30;;;;;;5112657;28;20419;-74
2022/03/03 08:05:35;;;;;;;28.00;17.08;;;5.30;47.60;;;;;;5112590;28;20470;-74
2022/03/03 08:08:02;;;;;;;26.98;16.50;;;5.40;46.40;;;;;;5112898;28;20032;-74
2022/03/03 08:10:29;;;;;;;26.50;16.42;;;5.60;46.30;;;;;;5112283;28;20376;-75
2022/03/03 08:12:59;;;;;;;30.13;16.60;;;5.70;45.30;;;;;;5112468;28;20028;-74
2022/03/03 08:15:25;;;;;;;28.42;16.40;;;5.80;44.40;;;;;;5111903;28;20494;-74
2022/03/03 08:17:53;;;;;;;26.27;15.93;;;5.80;44.40;;;;;;5112651;28;20062;-74
2022/03/03 08:20:20;;;;;;;29.95;17.33;;;5.90;44.00;;;;;;5114596;28;20410;-73
2022/03/03 08:22:46;;;;;;;24.40;14.82;;;6.00;43.40;;;;;;5116221;28;20054;-74
2022/03/03 08:25:12;;;;;;;25.08;15.27;;;6.00;43.40;;;;;;5115925;28;20063;-72
2022/03/03 08:27:40;;;;;;;25.55;16.55;;;6.20;43.50;;;;;;5116568;28;20130;-75
2022/03/03 08:30:08;;;;;;;26.33;17.23;;;6.30;42.90;;;;;;5115806;28;20425;-75
2022/03/03 08:32:38;;;;;;;25.08;15.95;;;6.50;42.70;;;;;;5116840;28;20027;-75
2022/03/03 08:35:30;;;;;;;25.35;15.45;;;6.70;42.90;;;;;;5116311;28;20032;-74
2022/03/03 08:38:22;;;;;;;26.15;15.88;;;7.00;42.50;;;;;;5116505;28;20024;-73
2022/03/03 08:40:51;;;;;;;28.55;16.67;;;7.30;41.70;;;;;;5116469;28;20027;-73
2022/03/03 08:43:22;;;;;;;28.88;16.23;;;7.50;40.40;;;;;;5115651;28;20426;-73
2022/03/03 08:45:49;;;;;;;25.08;15.82;;;7.60;39.70;;;;;;5115984;28;20039;-74
2022/03/03 08:48:15;;;;;;;29.75;16.45;;;7.80;39.20;;;;;;5115624;28;20055;-74
2022/03/03 08:50:42;;;;;;;28.40;16.73;;;7.90;39.40;;;;;;5116196;28;20474;-74
2022/03/03 08:53:09;;;;;;;23.88;16.27;;;8.10;39.60;;;;;;5115388;28;20039;-73
2022/03/03 08:55:36;;;;;;;27.17;16.38;;;8.30;38.50;;;;;;5115906;28;20467;-73
2022/03/03 08:58:03;;;;;;;26.80;17.17;;;8.40;37.90;;;;;;5115672;28;20023;-74
2022/03/03 09:00:30;;;;;;;26.17;16.27;;;8.50;37.50;;;;;;5115345;28;20596;-74
2022/03/03 09:02:57;;;;;;;32.72;15.88;;;8.50;37.50;;;;;;5116430;28;20094;-74
2022/03/03 09:05:23;;;;;;;26.08;16.70;;;8.60;36.50;;;;;;5115203;28;20092;-73
2022/03/03 09:07:49;;;;;;;33.75;17.30;;;8.60;36.30;;;;;;5115759;28;20114;-73
2022/03/03 09:10:16;;;;;;;28.00;16.30;;;8.60;36.30;;;;;;5115186;28;20031;-73
2022/03/03 09:12:41;;;;;;;25.33;15.57;;;8.70;36.10;;;;;;5115828;28;20032;-73
2022/03/03 09:15:08;;;;;;;25.70;16.35;;;8.70;35.40;;;;;;5115610;28;20031;-74
2022/03/03 09:17:35;;;;;;;24.08;15.40;;;8.70;35.20;;;;;;5115581;28;20031;-74
2022/03/03 09:20:03;;;;;;;28.02;15.02;;;8.80;34.80;;;;;;5115300;28;20023;-73
2022/03/03 09:22:29;;;;;;;26.13;15.30;;;8.90;34.50;;;;;;5114186;28;20220;-74
2022/03/03 09:24:55;;;;;;;22.85;14.57;;;9.00;34.30;;;;;;5115303;28;20054;-74
2022/03/03 09:27:22;;;;;;;24.13;15.70;;;9.10;33.90;;;;;;5114503;28;20032;-73
2022/03/03 09:29:47;;;;;;;23.95;15.68;;;9.10;33.70;;;;;;5114718;28;20068;-73
2022/03/03 09:32:13;;;;;;;30.10;15.98;;;9.20;34.00;;;;;;5115006;28;20024;-73
2022/03/03 09:34:40;;;;;;;24.00;14.88;;;9.20;33.70;;;;;;5115298;28;20464;-73
2022/03/03 09:37:06;;;;;;;24.23;15.05;;;9.10;33.50;;;;;;5115265;28;20089;-73
2022/03/03 09:39:31;;;;;;;23.17;15.13;;;9.10;33.60;;;;;;5114557;28;20023;-73
2022/03/03 09:41:58;;;;;;;31.42;15.07;;;9.20;33.90;;;;;;5115106;28;20180;-73
2022/03/03 09:44:25;;;;;;;25.83;15.38;;;9.20;34.00;;;;;;5114552;27;20035;-73
2022/03/03 09:46:50;;;;;;;24.30;15.63;;;9.10;33.70;;;;;;5114702;28;20513;-75
2022/03/03 09:49:17;;;;;;;29.48;16.15;;;9.00;33.70;;;;;;5113121;28;20032;-74
2022/03/03 09:51:43;;;;;;;24.30;16.58;;;9.00;33.80;;;;;;5114838;28;20023;-74
2022/03/03 09:54:09;;;;;;;24.17;15.07;;;9.00;34.40;;;;;;5114437;28;20480;-73
2022/03/03 09:56:36;;;;;;;22.75;15.80;;;9.10;34.10;;;;;;5114067;28;20039;-74
2022/03/03 09:59:02;;;;;;;23.45;15.57;;;9.20;33.90;;;;;;5114921;28;20515;-74
2022/03/03 10:01:29;;;;;;;20.20;14.15;;;9.30;33.70;;;;;;5113994;28;20059;-73
2022/03/03 10:03:58;;;;;;;21.63;14.82;;;9.40;33.90;;;;;;5114679;28;20031;-74
2022/03/03 10:06:24;;;;;;;27.20;15.65;;;9.40;33.60;;;;;;5113882;28;20428;-73
2022/03/03 10:08:50;;;;;;;23.55;15.43;;;9.50;33.50;;;;;;5114566;28;20030;-74
2022/03/03 10:11:16;;;;;;;24.05;15.07;;;9.60;33.10;;;;;;5114112;28;20461;-73
2022/03/03 10:13:48;;;;;;;29.65;15.40;;;9.60;32.90;;;;;;5114580;28;20024;-73
2022/03/03 10:16:23;;;;;;;29.52;14.95;;;9.60;32.90;;;;;;5113772;28;20038;-73
2022/03/03 10:19:07;;;;;;;27.95;16.20;;;9.60;32.90;;;;;;5113873;28;20046;-73
2022/03/03 10:21:38;;;;;;;23.70;15.82;;;9.70;33.30;;;;;;5112548;28;20258;-73
2022/03/03 10:24:21;;;;;;;21.05;15.15;;;9.60;32.70;;;;;;5114281;28;20460;-74
2022/03/03 10:27:06;;;;;;;28.30;15.52;;;9.70;33.00;;;;;;5114200;28;20032;-73
2022/03/03 10:29:34;;;;;;;22.48;14.80;;;9.70;32.90;;;;;;5113659;28;20023;-73
2022/03/03 10:32:02;;;;;;;22.58;15.30;;;9.70;32.80;;;;;;5113982;28;20032;-73
2022/03/03 10:34:30;;;;;;;22.60;15.05;;;9.90;33.30;;;;;;5113395;28;20030;-72
2022/03/03 10:37:02;;;;;;;21.90;15.43;;;10.00;32.60;;;;;;5113794;28;20023;-74
2022/03/03 10:39:48;;;;;;;21.95;15.43;;;10.10;33.20;;;;;;5113366;28;20422;-74
2022/03/03 10:42:20;;;;;;;19.83;14.73;;;10.20;32.40;;;;;;5113219;28;20058;-74
2022/03/03 10:44:47;;;;;;;26.23;15.77;;;10.20;32.20;;;;;;5113776;28;20078;-73
2022/03/03 10:47:21;;;;;;;24.52;14.88;;;10.30;32.30;;;;;;5113907;28;20042;-74
2022/03/03 10:49:48;;;;;;;24.20;14.45;;;10.40;32.20;;;;;;5113731;28;20032;-74
2022/03/03 10:52:17;;;;;;;19.73;13.90;;;10.40;31.70;;;;;;5113020;28;20027;-73
2022/03/03 10:55:01;;;;;;;20.80;13.95;;;10.50;31.40;;;;;;5112828;28;20047;-73
2022/03/03 10:57:58;;;;;;;21.35;14.02;;;10.60;31.10;;;;;;5113318;28;20071;-74
2022/03/03 11:00:30;;;;;;;23.88;15.32;;;10.60;30.80;;;;;;5111521;28;20472;-74
2022/03/03 11:03:01;;;;;;;22.08;15.15;;;10.60;31.00;;;;;;5113480;28;20023;-74
2022/03/03 11:05:30;;;;;;;21.60;14.40;;;10.60;31.60;;;;;;5111699;28;20036;-74
2022/03/03 11:07:56;;;;;;;19.60;14.07;;;10.70;31.00;;;;;;5113038;28;20031;-73
2022/03/03 11:10:27;;;;;;;18.10;13.27;;;10.70;30.90;;;;;;5112818;28;20023;-74
2022/03/03 11:12:55;;;;;;;18.88;13.00;;;10.80;30.70;;;;;;5113547;28;20055;-74
2022/03/03 11:15:23;;;;;;;21.85;13.80;;;10.90;30.20;;;;;;5112922;28;20410;-74
2022/03/03 11:17:50;;;;;;;21.27;13.98;;;10.90;29.90;;;;;;5112796;28;20418;-74
2022/03/03 11:20:18;;;;;;;24.30;14.05;;;10.90;29.70;;;;;;5113231;28;20023;-72
2022/03/03 11:22:45;;;;;;;19.45;13.77;;;10.90;29.90;;;;;;5111913;28;20415;-73
2022/03/03 11:25:26;;;;;;;19.55;12.82;;;11.00;29.80;;;;;;5113064;28;20085;-73
2022/03/03 11:28:05;;;;;;;21.23;13.68;;;11.00;30.00;;;;;;5113337;28;20039;-74
2022/03/03 11:30:31;;;;;;;22.45;13.27;;;11.00;30.00;;;;;;5112624;28;20023;-73
2022/03/03 11:33:25;;;;;;;24.55;13.45;;;11.10;30.00;;;;;;5112847;28;20020;-73
2022/03/03 11:35:56;;;;;;;22.90;14.30;;;11.10;30.20;;;;;;5112883;28;20031;-73
2022/03/03 11:38:25;;;;;;;21.25;13.85;;;11.20;29.90;;;;;;5112325;28;20054;-72
2022/03/03 11:41:00;;;;;;;21.90;13.95;;;11.20;29.90;;;;;;5113012;28;20099;-74
2022/03/03 11:43:27;;;;;;;19.40;13.73;;;11.20;30.00;;;;;;5112160;28;20096;-74
2022/03/03 11:45:58;;;;;;;25.83;14.43;;;11.20;29.70;;;;;;5112705;28;20038;-74
2022/03/03 11:48:35;;;;;;;22.52;15.15;;;11.20;29.60;;;;;;5112318;28;20480;-73
2022/03/03 11:51:34;;;;;;;21.55;13.95;;;11.20;29.60;;;;;;5112996;28;20093;-73
2022/03/03 11:54:11;;;;;;;22.88;14.80;;;11.20;29.60;;;;;;5112531;28;20058;-72
2022/03/03 11:57:03;;;;;;;24.80;15.43;;;11.30;30.20;;;;;;5112116;28;20047;-73
2022/03/03 11:59:46;;;;;;;24.55;15.43;;;11.30;29.60;;;;;;5111791;28;20034;-74
2022/03/03 12:02:19;;;;;;;19.67;14.10;;;11.30;29.80;;;;;;5111187;28;20059;-73
2022/03/03 12:04:45;;;;;;;23.33;15.45;;;11.20;29.80;;;;;;5111964;28;20023;-73
2022/03/03 12:07:30;;;;;;;23.88;14.13;;;11.10;29.70;;;;;;5112501;28;20039;-73
2022/03/03 12:09:58;;;;;;;24.55;15.35;;;11.10;29.60;;;;;;5112385;28;20024;-72
2022/03/03 12:12:29;;;;;;;22.98;14.80;;;11.10;29.80;;;;;;5111791;28;20024;-73
2022/03/03 12:14:59;;;;;;;25.13;15.13;;;11.00;30.00;;;;;;5112688;28;20041;-73
2022/03/03 12:18:00;;;;;;;24.25;15.40;;;10.90;29.90;;;;;;5111976;28;20028;-73
2022/03/03 12:20:35;;;;;;;23.00;13.60;;;10.70;30.00;;;;;;5111636;28;20464;-74
2022/03/03 12:23:08;;;;;;;23.88;14.30;;;10.70;29.70;;;;;;5112142;28;20038;-73
2022/03/03 12:25:51;;;;;;;24.77;15.40;;;10.60;29.50;;;;;;5111715;28;20038;-72
2022/03/03 12:28:26;;;;;;;22.23;15.00;;;10.60;29.80;;;;;;5112413;28;20031;-72
2022/03/03 12:30:53;;;;;;;23.90;15.25;;;10.60;30.00;;;;;;5112485;28;20439;-74
2022/03/03 12:33:26;;;;;;;24.33;14.13;;;10.70;30.00;;;;;;5112266;28;20034;-74
2022/03/03 12:35:57;;;;;;;20.83;14.60;;;10.70;29.90;;;;;;5112262;28;20472;-74
2022/03/03 12:38:23;;;;;;;23.60;14.40;;;10.80;29.70;;;;;;5111837;28;20571;-74
2022/03/03 12:40:50;;;;;;;26.25;14.55;;;10.80;29.40;;;;;;5112238;28;20106;-74
2022/03/03 12:43:18;;;;;;;21.98;13.43;;;10.80;29.10;;;;;;5112000;28;20406;-74